createdAt,value
2018-05-19T00:00:46.553Z,91.90
2018-05-19T00:03:14.297Z,92.00
2018-05-19T00:05:42.841Z,92.10
2018-05-19T00:08:10.576Z,92.10
2018-05-19T00:10:38.377Z,92.10
2018-05-19T00:13:06.177Z,92.20
2018-05-19T00:15:34.676Z,92.30
2018-05-19T00:18:02.412Z,92.30
2018-05-19T00:20:30.912Z,92.40
2018-05-19T00:22:58.641Z,92.30
2018-05-19T00:25:26.384Z,92.30
2018-05-19T00:27:54.155Z,92.40
2018-05-19T00:30:21.885Z,92.40
2018-05-19T00:32:49.634Z,92.40
2018-05-19T00:35:17.373Z,92.30
2018-05-19T00:37:45.871Z,92.40
2018-05-19T00:40:13.605Z,92.40
2018-05-19T00:42:41.335Z,92.60
2018-05-19T00:45:09.091Z,92.80
2018-05-19T00:47:36.832Z,92.90
2018-05-19T00:50:04.589Z,92.90
2018-05-19T00:52:32.336Z,92.90
2018-05-19T00:55:07.704Z,92.80
2018-05-19T00:57:35.454Z,92.80
2018-05-19T01:00:04.068Z,92.70
2018-05-19T01:02:31.817Z,92.70
2018-05-19T01:04:59.560Z,92.60
2018-05-19T01:07:28.067Z,92.80
2018-05-19T01:09:55.810Z,92.70
2018-05-19T01:12:24.309Z,92.70
2018-05-19T01:14:52.053Z,92.70
2018-05-19T01:17:21.853Z,92.80
2018-05-19T01:19:50.356Z,92.80
2018-05-19T01:22:18.109Z,92.80
2018-05-19T01:24:45.873Z,92.90
2018-05-19T01:27:14.390Z,93.10
2018-05-19T01:29:42.128Z,93.10
2018-05-19T01:32:09.878Z,93.10
2018-05-19T01:34:38.426Z,93.20
2018-05-19T01:37:06.208Z,93.30
2018-05-19T01:39:33.954Z,93.30
2018-05-19T01:42:01.710Z,93.60
2018-05-19T01:44:29.509Z,93.50
2018-05-19T01:46:58.009Z,93.50
2018-05-19T01:49:25.761Z,93.50
2018-05-19T01:51:54.286Z,93.10
2018-05-19T01:54:22.032Z,93.10
2018-05-19T01:56:49.773Z,93.20
2018-05-19T01:59:18.309Z,93.30
2018-05-19T02:01:46.048Z,93.30
2018-05-19T02:04:13.787Z,93.20
2018-05-19T02:06:41.513Z,93.20
2018-05-19T02:09:09.282Z,93.20
2018-05-19T02:11:37.052Z,93.20
2018-05-19T02:14:04.800Z,93.30
2018-05-19T02:16:32.564Z,93.10
2018-05-19T02:19:00.296Z,93.00
2018-05-19T02:21:28.044Z,93.00
2018-05-19T02:23:56.567Z,92.80
2018-05-19T02:26:24.365Z,92.80
2018-05-19T02:28:52.872Z,92.90
2018-05-19T02:31:20.651Z,92.90
2018-05-19T02:33:48.388Z,92.70
2018-05-19T02:36:16.128Z,92.80
2018-05-19T02:38:43.892Z,92.80
2018-05-19T02:41:12.418Z,92.70
2018-05-19T02:43:40.180Z,92.70
2018-05-19T02:46:08.690Z,92.70
2018-05-19T02:48:36.448Z,92.70
2018-05-19T02:51:04.211Z,92.80
2018-05-19T02:53:31.960Z,93.00
2018-05-19T02:55:59.704Z,93.10
2018-05-19T02:58:27.453Z,93.10
2018-05-19T03:00:55.945Z,93.30
2018-05-19T03:03:23.697Z,93.70
2018-05-19T03:05:52.204Z,93.50
2018-05-19T03:08:19.953Z,93.50
2018-05-19T03:10:47.712Z,93.40
2018-05-19T03:13:15.441Z,93.50
2018-05-19T03:15:43.168Z,93.40
2018-05-19T03:18:10.973Z,93.60
2018-05-19T03:20:38.706Z,93.70
2018-05-19T03:23:06.441Z,93.80
2018-05-19T03:25:34.205Z,93.90
2018-05-19T03:28:01.973Z,93.90
2018-05-19T03:30:29.717Z,94.20
2018-05-19T03:32:59.051Z,93.70
2018-05-19T03:35:26.800Z,93.70
2018-05-19T03:37:54.576Z,93.80
2018-05-19T03:40:22.330Z,93.90
2018-05-19T03:42:50.090Z,93.90
2018-05-19T03:45:17.841Z,93.90
2018-05-19T03:47:45.587Z,93.90
2018-05-19T03:50:14.089Z,94.00
2018-05-19T03:52:41.860Z,93.90
2018-05-19T03:55:09.612Z,93.90
2018-05-19T03:57:49.193Z,93.90
2018-05-19T04:00:28.649Z,93.90
2018-05-19T04:02:56.396Z,94.00
2018-05-19T04:05:24.158Z,93.90
2018-05-19T04:07:51.892Z,93.90
2018-05-19T04:10:19.661Z,93.90
2018-05-19T04:12:47.396Z,94.10
2018-05-19T04:15:15.916Z,93.90
2018-05-19T04:17:43.661Z,93.90
2018-05-19T04:20:11.404Z,93.80
2018-05-19T04:22:39.905Z,93.60
2018-05-19T04:25:07.685Z,93.60
2018-05-19T04:27:35.433Z,93.50
2018-05-19T04:30:03.201Z,93.50
2018-05-19T04:32:30.949Z,93.60
2018-05-19T04:34:59.456Z,93.50
2018-05-19T04:37:27.257Z,93.50
2018-05-19T04:39:55.006Z,93.50
2018-05-19T04:42:22.751Z,93.40
2018-05-19T04:44:50.520Z,93.40
2018-05-19T04:47:18.260Z,93.40
2018-05-19T04:49:46.806Z,93.40
2018-05-19T04:52:14.541Z,93.40
2018-05-19T04:54:42.280Z,93.40
2018-05-19T04:57:10.035Z,93.40
2018-05-19T04:59:37.777Z,93.50
2018-05-19T05:02:06.281Z,93.40
2018-05-19T05:04:34.037Z,93.30
2018-05-19T05:07:01.777Z,93.40
2018-05-19T05:09:30.285Z,93.80
2018-05-19T05:11:58.084Z,93.80
2018-05-19T05:14:25.845Z,93.60
2018-05-19T05:16:54.582Z,93.30
2018-05-19T05:19:23.091Z,92.60
2018-05-19T05:21:50.857Z,92.50
2018-05-19T05:24:19.376Z,92.90
2018-05-19T05:26:47.121Z,92.90
2018-05-19T05:29:14.884Z,92.90
2018-05-19T05:31:42.632Z,93.00
2018-05-19T05:34:11.173Z,91.10
2018-05-19T05:36:39.734Z,89.00
2018-05-19T05:39:07.613Z,88.90
2018-05-19T05:41:36.156Z,84.90
2018-05-19T05:44:03.952Z,84.90
2018-05-19T05:46:31.688Z,83.70
2018-05-19T05:48:59.433Z,83.10
2018-05-19T05:51:27.184Z,82.40
2018-05-19T05:53:54.944Z,81.40
2018-05-19T05:56:23.465Z,79.80
2018-05-19T05:58:51.247Z,79.80
2018-05-19T06:01:18.984Z,79.30
2018-05-19T06:03:46.716Z,79.40
2018-05-19T06:06:18.462Z,80.40
2018-05-19T06:08:46.139Z,80.40
2018-05-19T06:11:13.873Z,80.60
2018-05-19T06:13:41.613Z,81.10
2018-05-19T06:16:09.358Z,82.00
2018-05-19T06:18:37.106Z,82.40
2018-05-19T06:21:04.877Z,82.90
2018-05-19T06:23:32.612Z,83.40
2018-05-19T06:26:01.104Z,84.00
2018-05-19T06:28:28.842Z,83.90
2018-05-19T06:30:57.365Z,84.60
2018-05-19T06:33:25.096Z,84.50
2018-05-19T06:35:53.597Z,82.90
2018-05-19T06:38:21.328Z,82.90
2018-05-19T06:40:49.055Z,82.70
2018-05-19T06:43:16.786Z,82.50
2018-05-19T06:45:44.528Z,80.80
2018-05-19T06:48:13.166Z,78.90
2018-05-19T06:50:40.832Z,78.90
2018-05-19T06:53:08.636Z,79.30
2018-05-19T06:55:37.169Z,78.40
2018-05-19T06:58:04.924Z,78.40
2018-05-19T07:00:32.698Z,78.30
2018-05-19T07:03:00.456Z,77.70
2018-05-19T07:05:28.201Z,77.80
2018-05-19T07:07:55.951Z,77.50
2018-05-19T07:10:23.714Z,76.80
2018-05-19T07:12:52.205Z,76.20
2018-05-19T07:15:19.940Z,76.30
2018-05-19T07:17:48.468Z,76.30
2018-05-19T07:20:16.215Z,76.30
2018-05-19T07:22:43.950Z,76.00
2018-05-19T07:25:12.525Z,75.80
2018-05-19T07:27:40.291Z,75.80
2018-05-19T07:30:08.028Z,75.50
2018-05-19T07:32:35.794Z,75.90
2018-05-19T07:35:03.558Z,75.10
2018-05-19T07:37:31.360Z,74.50
2018-05-19T07:39:59.865Z,74.90
2018-05-19T07:42:29.870Z,75.20
2018-05-19T07:44:57.760Z,75.20
2018-05-19T07:47:25.548Z,75.10
2018-05-19T07:49:53.283Z,74.60
2018-05-19T07:52:21.041Z,75.80
2018-05-19T07:54:49.579Z,75.70
2018-05-19T07:57:19.131Z,75.10
2018-05-19T07:59:46.896Z,75.10
2018-05-19T08:02:14.660Z,74.70
2018-05-19T08:04:44.130Z,75.10
2018-05-19T08:07:12.913Z,75.90
2018-05-19T08:09:44.193Z,76.00
2018-05-19T08:12:12.349Z,76.00
2018-05-19T08:14:40.900Z,76.50
2018-05-19T08:17:08.719Z,76.50
2018-05-19T08:19:36.494Z,76.40
2018-05-19T08:22:04.287Z,76.00
2018-05-19T08:24:32.040Z,75.60
2018-05-19T08:26:59.785Z,75.70
2018-05-19T08:29:27.528Z,75.60
2018-05-19T08:31:55.282Z,75.60
2018-05-19T08:34:23.797Z,75.10
2018-05-19T08:36:51.549Z,75.10
2018-05-19T08:39:19.297Z,74.90
2018-05-19T08:41:47.800Z,74.80
2018-05-19T08:44:15.553Z,74.90
2018-05-19T08:46:44.052Z,76.10
2018-05-19T08:49:11.781Z,75.60
2018-05-19T08:51:40.540Z,76.10
2018-05-19T08:54:08.310Z,76.80
2018-05-19T08:56:36.060Z,77.20
2018-05-19T08:59:03.800Z,76.70
2018-05-19T09:01:31.534Z,77.40
2018-05-19T09:03:59.332Z,77.80
2018-05-19T09:06:27.081Z,78.10
2018-05-19T09:08:54.843Z,80.00
2018-05-19T09:11:22.577Z,80.10
2018-05-19T09:13:51.085Z,82.20
2018-05-19T09:16:18.826Z,82.00
2018-05-19T09:18:47.317Z,81.70
2018-05-19T09:21:15.061Z,81.70
2018-05-19T09:23:43.561Z,82.30
2018-05-19T09:26:11.360Z,82.30
2018-05-19T09:28:39.955Z,80.00
2018-05-19T09:31:07.725Z,80.10
2018-05-19T09:33:35.457Z,82.10
2018-05-19T09:36:03.812Z,79.40
2018-05-19T09:38:31.622Z,79.10
2018-05-19T09:40:59.365Z,78.00
2018-05-19T09:43:27.102Z,79.20
2018-05-19T09:45:54.860Z,77.40
2018-05-19T09:48:23.356Z,75.40
2018-05-19T09:50:51.094Z,75.40
2018-05-19T09:53:19.606Z,76.60
2018-05-19T09:55:47.369Z,76.50
2018-05-19T09:58:15.110Z,75.70
2018-05-19T10:00:43.663Z,74.90
2018-05-19T10:03:12.212Z,73.80
2018-05-19T10:05:40.049Z,73.80
2018-05-19T10:08:07.793Z,74.60
2018-05-19T10:10:36.334Z,73.50
2018-05-19T10:13:04.169Z,73.50
2018-05-19T10:15:31.928Z,74.50
2018-05-19T10:17:59.714Z,73.60
2018-05-19T10:20:27.469Z,74.00
2018-05-19T10:22:55.367Z,74.30
2018-05-19T10:25:23.057Z,75.90
2018-05-19T10:27:51.561Z,76.90
2018-05-19T10:30:19.314Z,76.90
2018-05-19T10:32:47.838Z,77.80
2018-05-19T10:35:15.582Z,77.80
2018-05-19T10:37:43.316Z,77.50
2018-05-19T10:40:11.194Z,77.80
2018-05-19T10:42:39.691Z,77.10
2018-05-19T10:45:07.439Z,77.00
2018-05-19T10:47:35.942Z,78.40
2018-05-19T10:50:03.787Z,78.50
2018-05-19T10:52:31.541Z,78.60
2018-05-19T10:55:00.049Z,78.30
2018-05-19T10:57:27.920Z,78.30
2018-05-19T10:59:55.652Z,78.50
2018-05-19T11:02:24.269Z,80.20
2018-05-19T11:04:52.017Z,80.20
2018-05-19T11:07:19.766Z,80.50
2018-05-19T11:09:48.327Z,81.00
2018-05-19T11:12:16.861Z,80.90
2018-05-19T11:14:44.609Z,80.90
2018-05-19T11:17:12.348Z,81.30
2018-05-19T11:19:40.157Z,80.60
2018-05-19T11:22:07.880Z,80.30
2018-05-19T11:24:36.386Z,79.60
2018-05-19T11:27:04.117Z,79.60
2018-05-19T11:29:31.866Z,79.80
2018-05-19T11:31:59.629Z,80.80
2018-05-19T11:34:27.374Z,80.00
2018-05-19T11:36:55.120Z,78.80
2018-05-19T11:39:22.849Z,79.60
2018-05-19T11:41:51.349Z,79.80
2018-05-19T11:44:19.084Z,79.80
2018-05-19T11:46:47.614Z,80.90
2018-05-19T11:49:15.429Z,80.90
2018-05-19T11:51:43.941Z,80.80
2018-05-19T11:54:11.700Z,80.80
2018-05-19T11:56:39.473Z,79.50
2018-05-19T11:59:07.237Z,79.30
2018-05-19T12:01:34.995Z,78.70
2018-05-19T12:04:02.733Z,80.00
2018-05-19T12:06:31.288Z,79.10
2018-05-19T12:08:59.042Z,79.10
2018-05-19T12:11:26.805Z,80.30
2018-05-19T12:13:54.636Z,80.90
2018-05-19T12:16:22.368Z,81.00
2018-05-19T12:18:50.886Z,81.50
2018-05-19T12:21:18.620Z,81.50
2018-05-19T12:23:47.141Z,80.50
2018-05-19T12:26:14.925Z,80.50
2018-05-19T12:28:42.673Z,80.30
2018-05-19T12:31:10.457Z,80.40
2018-05-19T12:33:38.225Z,81.30
2018-05-19T12:36:05.969Z,82.80
2018-05-19T12:38:34.024Z,81.70
2018-05-19T12:41:01.890Z,82.30
2018-05-19T12:43:29.642Z,82.50
2018-05-19T12:45:57.486Z,82.90
2018-05-19T12:48:26.030Z,84.70
2018-05-19T12:50:53.788Z,84.70
2018-05-19T12:53:21.568Z,85.90
2018-05-19T12:55:49.347Z,86.20
2018-05-19T12:58:17.092Z,85.90
2018-05-19T13:00:44.904Z,86.60
2018-05-19T13:03:12.641Z,86.70
2018-05-19T13:05:40.384Z,86.40
2018-05-19T13:08:08.117Z,86.80
2018-05-19T13:10:36.609Z,87.00
2018-05-19T13:13:04.332Z,87.00
2018-05-19T13:15:32.844Z,86.70
2018-05-19T13:18:00.577Z,86.70
2018-05-19T13:20:29.065Z,87.60
2018-05-19T13:22:56.868Z,87.60
2018-05-19T13:25:24.620Z,88.00
2018-05-19T13:27:52.352Z,88.30
2018-05-19T13:30:20.149Z,87.10
2018-05-19T13:32:47.884Z,86.80
2018-05-19T13:35:16.397Z,87.20
2018-05-19T13:37:44.117Z,87.10
2018-05-19T13:40:12.652Z,86.50
2018-05-19T13:42:40.400Z,86.40
2018-05-19T13:45:08.133Z,85.90
2018-05-19T13:47:36.645Z,84.90
2018-05-19T13:50:04.401Z,84.90
2018-05-19T13:52:32.129Z,83.40
2018-05-19T13:55:00.645Z,84.40
2018-05-19T13:57:28.386Z,84.40
2018-05-19T13:59:56.968Z,86.20
2018-05-19T14:02:25.490Z,86.50
2018-05-19T14:04:53.246Z,86.40
2018-05-19T14:07:21.013Z,87.20
2018-05-19T14:09:48.759Z,85.70
2018-05-19T14:12:16.534Z,87.00
2018-05-19T14:14:44.322Z,85.90
2018-05-19T14:17:12.079Z,85.00
2018-05-19T14:19:39.808Z,87.40
2018-05-19T14:22:07.560Z,87.30
2018-05-19T14:24:36.067Z,84.20
2018-05-19T14:27:03.810Z,84.20
2018-05-19T14:29:31.654Z,84.50
2018-05-19T14:31:59.416Z,84.00
2018-05-19T14:34:27.924Z,85.20
2018-05-19T14:36:55.741Z,85.20
2018-05-19T14:39:23.516Z,85.80
2018-05-19T14:41:51.253Z,86.10
2018-05-19T14:44:19.000Z,85.30
2018-05-19T14:46:46.754Z,86.60
2018-05-19T14:49:14.500Z,87.40
2018-05-19T14:51:42.997Z,87.50
2018-05-19T14:54:10.744Z,87.50
2018-05-19T14:56:39.334Z,87.20
2018-05-19T14:59:07.109Z,87.20
2018-05-19T15:01:34.856Z,86.10
2018-05-19T15:04:03.373Z,86.70
2018-05-19T15:06:31.129Z,86.70
2018-05-19T15:08:58.884Z,85.60
2018-05-19T15:11:26.636Z,86.50
2018-05-19T15:13:54.434Z,84.90
2018-05-19T15:16:22.172Z,84.60
2018-05-19T15:18:49.920Z,85.00
2018-05-19T15:21:17.700Z,85.20
2018-05-19T15:23:45.441Z,85.90
2018-05-19T15:26:13.956Z,84.50
2018-05-19T15:28:41.705Z,84.50
2018-05-19T15:31:09.464Z,86.60
2018-05-19T15:33:37.294Z,86.60
2018-05-19T15:36:05.040Z,87.20
2018-05-19T15:38:32.822Z,88.40
2018-05-19T15:41:00.636Z,88.40
2018-05-19T15:43:28.415Z,87.80
2018-05-19T15:45:56.170Z,88.40
2018-05-19T15:48:23.995Z,88.00
2018-05-19T15:50:52.513Z,89.50
2018-05-19T15:53:20.267Z,89.50
2018-05-19T15:55:48.028Z,88.60
2018-05-19T15:58:15.820Z,89.40
2018-05-19T16:00:43.569Z,87.30
2018-05-19T16:03:11.410Z,88.10
2018-05-19T16:05:39.141Z,89.20
2018-05-19T16:08:06.908Z,89.40
2018-05-19T16:10:34.673Z,88.20
2018-05-19T16:13:02.466Z,88.70
2018-05-19T16:15:30.222Z,89.00
2018-05-19T16:17:58.732Z,87.10
2018-05-19T16:20:26.523Z,87.10
2018-05-19T16:22:54.276Z,86.60
2018-05-19T16:25:22.022Z,85.30
2018-05-19T16:27:49.754Z,83.90
2018-05-19T16:30:18.352Z,82.80
2018-05-19T16:32:46.116Z,82.80
2018-05-19T16:35:14.684Z,83.60
2018-05-19T16:37:43.196Z,84.50
2018-05-19T16:40:11.006Z,84.60
2018-05-19T16:42:38.736Z,83.20
2018-05-19T16:45:06.496Z,81.80
2018-05-19T16:47:34.275Z,82.20
2018-05-19T16:50:02.024Z,82.10
2018-05-19T16:52:29.790Z,82.60
2018-05-19T16:54:57.577Z,83.10
2018-05-19T16:57:25.326Z,83.10
2018-05-19T16:59:53.100Z,81.60
2018-05-19T17:02:20.837Z,80.50
2018-05-19T17:04:48.708Z,80.80
2018-05-19T17:07:18.013Z,84.20
2018-05-19T17:09:45.787Z,84.20
2018-05-19T17:12:13.555Z,85.00
2018-05-19T17:14:41.303Z,83.40
2018-05-19T17:17:09.093Z,85.50
2018-05-19T17:19:36.836Z,86.10
2018-05-19T17:22:04.597Z,85.70
2018-05-19T17:24:32.350Z,85.30
2018-05-19T17:27:00.100Z,84.40
2018-05-19T17:29:27.850Z,83.30
2018-05-19T17:31:56.387Z,81.20
2018-05-19T17:34:24.120Z,81.20
2018-05-19T17:36:51.845Z,82.20
2018-05-19T17:39:19.605Z,82.00
2018-05-19T17:41:48.216Z,80.10
2018-05-19T17:44:16.743Z,80.80
2018-05-19T17:46:45.501Z,80.80
2018-05-19T17:49:13.261Z,81.70
2018-05-19T17:51:41.062Z,80.90
2018-05-19T17:54:08.799Z,79.80
2018-05-19T17:56:37.421Z,80.10
2018-05-19T17:59:05.227Z,78.60
2018-05-19T18:01:33.810Z,80.10
2018-05-19T18:04:02.372Z,80.40
2018-05-19T18:06:30.900Z,81.00
2018-05-19T18:08:58.649Z,80.90
2018-05-19T18:11:26.402Z,82.50
2018-05-19T18:13:54.988Z,84.50
2018-05-19T18:16:22.700Z,84.50
2018-05-19T18:18:50.490Z,85.90
2018-05-19T18:21:19.019Z,85.40
2018-05-19T18:23:46.758Z,85.40
2018-05-19T18:26:15.296Z,83.60
2018-05-19T18:28:43.138Z,83.00
2018-05-19T18:31:11.625Z,83.50
2018-05-19T18:33:39.344Z,83.40
2018-05-19T18:36:07.845Z,83.70
2018-05-19T18:38:35.573Z,83.70
2018-05-19T18:41:04.118Z,82.50
2018-05-19T18:43:31.887Z,82.50
2018-05-19T18:45:59.627Z,82.80
2018-05-19T18:48:27.364Z,82.60
2018-05-19T18:50:55.939Z,85.40
2018-05-19T18:53:24.510Z,86.90
2018-05-19T18:55:52.501Z,86.90
2018-05-19T18:58:22.276Z,89.20
2018-05-19T19:00:50.024Z,90.30
2018-05-19T19:03:17.772Z,90.90
2018-05-19T19:05:45.513Z,91.50
2018-05-19T19:08:13.369Z,92.00
2018-05-19T19:10:42.080Z,92.60
2018-05-19T19:13:10.599Z,93.50
2018-05-19T19:15:38.337Z,93.50
2018-05-19T19:18:06.127Z,93.90
2018-05-19T19:20:33.874Z,92.80
2018-05-19T19:23:01.620Z,93.00
2018-05-19T19:25:29.402Z,92.90
2018-05-19T19:27:57.168Z,93.10
2018-05-19T19:30:24.937Z,92.60
2018-05-19T19:32:52.690Z,92.50
2018-05-19T19:35:20.476Z,92.70
2018-05-19T19:37:48.262Z,92.30
2018-05-19T19:40:16.783Z,92.80
2018-05-19T19:42:45.558Z,92.80
2018-05-19T19:45:13.304Z,93.00
2018-05-19T19:47:41.844Z,93.00
2018-05-19T19:50:09.719Z,93.00
2018-05-19T19:52:37.436Z,93.30
2018-05-19T19:55:05.180Z,93.60
2018-05-19T19:57:33.687Z,93.80
2018-05-19T20:00:01.460Z,93.80
2018-05-19T20:02:29.238Z,94.10
2018-05-19T20:04:57.009Z,94.20
2018-05-19T20:07:24.756Z,94.40
2018-05-19T20:09:52.573Z,94.60
2018-05-19T20:12:21.112Z,95.50
2018-05-19T20:14:48.843Z,95.50
2018-05-19T20:17:16.592Z,95.30
2018-05-19T20:19:45.105Z,95.40
2018-05-19T20:22:12.841Z,95.40
2018-05-19T20:24:40.657Z,95.00
2018-05-19T20:27:08.424Z,95.40
2018-05-19T20:29:36.189Z,94.90
2018-05-19T20:32:03.972Z,94.80
2018-05-19T20:34:31.760Z,94.50
2018-05-19T20:37:00.288Z,94.60
2018-05-19T20:39:28.096Z,94.50
2018-05-19T20:41:56.723Z,94.20
2018-05-19T20:44:24.589Z,94.20
2018-05-19T20:46:52.404Z,94.00
2018-05-19T20:49:20.924Z,93.90
2018-05-19T20:51:48.657Z,93.80
2018-05-19T20:54:17.180Z,93.00
2018-05-19T20:56:44.927Z,93.00
2018-05-19T20:59:12.662Z,93.00
2018-05-19T21:01:41.198Z,93.50
2018-05-19T21:04:08.975Z,93.40
2018-05-19T21:06:36.762Z,93.10
2018-05-19T21:09:05.420Z,93.10
2018-05-19T21:11:33.184Z,93.00
2018-05-19T21:14:00.998Z,92.80
2018-05-19T21:16:29.533Z,93.00
2018-05-19T21:18:57.397Z,92.90
2018-05-19T21:21:25.851Z,92.30
2018-05-19T21:23:53.605Z,92.20
2018-05-19T21:26:21.356Z,92.00
2018-05-19T21:28:49.951Z,92.20
2018-05-19T21:31:17.700Z,92.20
2018-05-19T21:33:45.615Z,92.00
2018-05-19T21:36:13.394Z,92.10
2018-05-19T21:38:41.123Z,92.20
2018-05-19T21:41:08.968Z,92.00
2018-05-19T21:43:36.714Z,91.50
2018-05-19T21:46:05.327Z,91.00
2018-05-19T21:48:33.156Z,91.00
2018-05-19T21:51:00.900Z,91.00
2018-05-19T21:53:28.704Z,90.80
2018-05-19T21:55:56.542Z,90.80
2018-05-19T21:58:24.292Z,90.10
2018-05-19T22:00:52.066Z,90.30
2018-05-19T22:03:19.930Z,90.40
2018-05-19T22:05:47.919Z,90.30
2018-05-19T22:08:16.448Z,90.40
2018-05-19T22:10:44.197Z,90.40
2018-05-19T22:13:11.944Z,90.00
2018-05-19T22:15:40.591Z,90.10
2018-05-19T22:18:09.248Z,90.10
2018-05-19T22:20:37.000Z,90.10
2018-05-19T22:23:05.536Z,90.10
2018-05-19T22:25:33.290Z,90.10
2018-05-19T22:28:01.076Z,90.40
2018-05-19T22:30:29.824Z,90.80
2018-05-19T22:32:57.583Z,90.80
2018-05-19T22:35:26.152Z,90.90
2018-05-19T22:37:54.777Z,91.30
2018-05-19T22:40:22.521Z,91.30
2018-05-19T22:42:50.281Z,91.50
2018-05-19T22:45:18.109Z,91.80
2018-05-19T22:47:45.853Z,92.00
2018-05-19T22:50:14.376Z,92.50
2018-05-19T22:52:42.142Z,92.50
2018-05-19T22:55:09.918Z,92.70
2018-05-19T22:57:37.663Z,92.80
2018-05-19T23:00:05.449Z,92.70
2018-05-19T23:02:33.222Z,92.80
2018-05-19T23:05:01.037Z,93.00
2018-05-19T23:07:28.794Z,93.20
2018-05-19T23:09:57.304Z,93.20
2018-05-19T23:12:25.045Z,93.20
2018-05-19T23:14:52.825Z,93.10
2018-05-19T23:17:20.556Z,93.00
2018-05-19T23:19:49.073Z,93.20
2018-05-19T23:22:16.900Z,93.10
2018-05-19T23:24:45.410Z,92.70
2018-05-19T23:27:13.161Z,92.70
2018-05-19T23:29:41.679Z,92.80
2018-05-19T23:32:09.417Z,92.80
2018-05-19T23:34:37.172Z,92.80
2018-05-19T23:37:04.908Z,92.80
2018-05-19T23:39:33.428Z,92.80
2018-05-19T23:42:01.265Z,92.70
2018-05-19T23:44:29.783Z,92.70
2018-05-19T23:46:57.527Z,92.70
2018-05-19T23:49:25.288Z,92.90
2018-05-19T23:51:53.040Z,92.50
2018-05-19T23:54:21.570Z,92.50
2018-05-19T23:56:49.326Z,92.50
2018-05-19T23:59:17.827Z,92.40
